Time;durP1;ratioP1;P1;durP2;ratioP2;P2;SDS_P1;SDS_P2;PMS_P1;PMS_P2;Temp;Humidity;BMP_temperature;BMP_pressure;BME280_temperature;BME280_humidity;BME280_pressure;Samples;Min_cycle;Max_cycle;Signal;HPM_P1;HPM_P2
2023/06/25 04:01:01;;;;;;;0.70;0.20;;;21.60;1.00;;;;;;5783562;23;20491;-75
2023/06/25 04:03:29;;;;;;;0.60;0.20;;;21.50;1.00;;;;;;4956621;29;20491;-75
2023/06/25 04:05:57;;;;;;;0.60;0.20;;;;;;;;;;4950350;29;21066;-75
2023/06/25 04:08:25;;;;;;;0.60;0.20;;;21.40;1.00;;;;;;4956118;29;20457;-75
2023/06/25 04:10:53;;;;;;;2.20;1.90;;;21.50;1.00;;;;;;4950556;28;20542;-75
2023/06/25 04:13:21;;;;;;;0.60;0.10;;;21.40;1.00;;;;;;4956313;28;21011;-76
2023/06/25 04:15:49;;;;;;;2.93;2.00;;;21.40;1.00;;;;;;4957937;29;20510;-76
2023/06/25 04:18:18;;;;;;;0.60;0.20;;;21.30;1.00;;;;;;4957028;29;20535;-75
2023/06/25 04:20:46;;;;;;;1.00;0.20;;;21.30;1.00;;;;;;4957195;28;20536;-76
2023/06/25 04:23:14;;;;;;;0.70;0.10;;;21.20;1.00;;;;;;4948690;29;20560;-76
2023/06/25 04:25:43;;;;;;;0.70;0.30;;;;;;;;;;4956422;29;20487;-75
2023/06/25 04:28:15;;;;;;;0.70;0.10;;;21.20;1.00;;;;;;4956581;29;20531;-75
2023/06/25 04:30:43;;;;;;;2.33;2.23;;;21.20;1.00;;;;;;4956815;28;20530;-76
2023/06/25 04:33:10;;;;;;;0.60;0.10;;;21.30;1.00;;;;;;4956542;29;20512;-76
2023/06/25 04:35:40;;;;;;;0.63;0.20;;;21.40;1.00;;;;;;4956627;29;20456;-76
2023/06/25 04:38:07;;;;;;;0.63;0.20;;;21.50;1.00;;;;;;4956726;29;20519;-76
2023/06/25 04:40:35;;;;;;;0.60;0.10;;;21.50;1.00;;;;;;4956376;28;20951;-76
2023/06/25 04:43:03;;;;;;;0.60;0.10;;;;;;;;;;4956399;29;20484;-76
2023/06/25 04:45:32;;;;;;;0.60;0.10;;;;;;;;;;4956720;29;20860;-76
2023/06/25 04:48:00;;;;;;;0.70;0.20;;;;;;;;;;4957744;29;20821;-76
2023/06/25 04:50:28;;;;;;;0.60;0.10;;;21.80;1.00;;;;;;4958265;28;20532;-76
2023/06/25 04:52:57;;;;;;;0.80;0.50;;;21.80;1.00;;;;;;4958086;29;20547;-75
2023/06/25 04:55:25;;;;;;;0.60;0.20;;;21.80;1.00;;;;;;4957761;29;20453;-76
2023/06/25 04:57:53;;;;;;;0.70;0.20;;;21.80;1.00;;;;;;4956454;29;20542;-76
2023/06/25 05:00:21;;;;;;;0.60;0.20;;;21.80;1.00;;;;;;4956272;29;20459;-76
2023/06/25 05:02:49;;;;;;;0.80;0.30;;;;;;;;;;4956167;28;20561;-75
2023/06/25 05:05:17;;;;;;;0.70;0.20;;;21.90;1.00;;;;;;4956033;29;20525;-75
2023/06/25 05:07:45;;;;;;;0.70;0.20;;;21.90;1.00;;;;;;4956393;29;20551;-75
2023/06/25 05:10:15;;;;;;;0.70;0.10;;;21.90;1.00;;;;;;4955772;29;20942;-75
2023/06/25 05:12:44;;;;;;;0.60;0.20;;;;;;;;;;4955645;28;20472;-75
2023/06/25 05:15:12;;;;;;;0.70;0.10;;;;;;;;;;4955859;29;20448;-75
2023/06/25 05:17:40;;;;;;;0.60;0.10;;;21.90;1.00;;;;;;4955804;29;20676;-75
2023/06/25 05:20:09;;;;;;;0.60;0.10;;;21.90;1.00;;;;;;4955631;29;20452;-75
2023/06/25 05:22:37;;;;;;;0.80;0.30;;;21.80;1.00;;;;;;4955311;28;20503;-75
2023/06/25 05:25:05;;;;;;;0.60;0.10;;;21.90;1.00;;;;;;4954536;28;20458;-74
2023/06/25 05:27:35;;;;;;;0.60;0.10;;;21.90;1.00;;;;;;4955639;29;20447;-75
2023/06/25 05:30:02;;;;;;;0.60;0.20;;;21.80;1.00;;;;;;4955662;29;20899;-76
2023/06/25 05:32:30;;;;;;;0.70;0.20;;;21.80;1.00;;;;;;4954965;28;20764;-75
2023/06/25 05:34:58;;;;;;;0.60;0.10;;;21.80;1.00;;;;;;4955256;29;20984;-76
2023/06/25 05:37:26;;;;;;;0.60;0.10;;;21.80;1.00;;;;;;4955508;29;20452;-76
2023/06/25 05:39:54;;;;;;;0.70;0.10;;;21.80;1.00;;;;;;4954997;29;20493;-76
2023/06/25 05:42:22;;;;;;;1.20;0.73;;;21.80;1.00;;;;;;4955237;28;20480;-75
2023/06/25 05:44:51;;;;;;;0.70;0.13;;;21.80;1.00;;;;;;4954984;29;20939;-76
2023/06/25 05:47:19;;;;;;;0.70;0.10;;;21.90;1.00;;;;;;4955089;29;20904;-75
2023/06/25 05:49:47;;;;;;;0.70;0.40;;;22.00;1.00;;;;;;4955454;29;21158;-76
2023/06/25 05:52:18;;;;;;;0.60;0.20;;;;;;;;;;4955034;28;20507;-76
2023/06/25 05:54:46;;;;;;;0.70;0.10;;;22.10;1.00;;;;;;4955128;29;21009;-76
2023/06/25 05:57:14;;;;;;;0.60;0.20;;;22.20;1.00;;;;;;4955769;29;20881;-75
2023/06/25 05:59:41;;;;;;;0.60;0.10;;;22.10;1.00;;;;;;4943149;29;20467;-76
2023/06/25 06:02:11;;;;;;;0.70;0.20;;;22.10;1.00;;;;;;4956790;28;20482;-78
2023/06/25 06:04:39;;;;;;;0.63;0.10;;;22.20;1.00;;;;;;4955006;29;20449;-75
2023/06/25 06:07:07;;;;;;;0.70;0.20;;;22.30;1.00;;;;;;4954668;29;20486;-74
2023/06/25 06:09:35;;;;;;;0.70;0.20;;;22.30;1.00;;;;;;4955284;29;20817;-75
2023/06/25 06:12:03;;;;;;;0.70;0.10;;;22.30;1.00;;;;;;4937697;29;20851;-76
2023/06/25 06:14:30;;;;;;;0.60;0.20;;;22.40;1.00;;;;;;4935800;29;20544;-76
2023/06/25 06:16:58;;;;;;;0.70;0.20;;;22.50;1.00;;;;;;4936406;29;20499;-75
2023/06/25 06:19:28;;;;;;;0.70;0.10;;;22.50;1.00;;;;;;4939240;29;20471;-76
2023/06/25 06:21:58;;;;;;;0.70;0.30;;;22.50;1.00;;;;;;4934866;29;20948;-75
2023/06/25 06:24:27;;;;;;;0.70;0.10;;;;;;;;;;4941474;29;20465;-76
2023/06/25 06:26:55;;;;;;;0.70;0.10;;;22.60;1.00;;;;;;4953844;29;20507;-74
2023/06/25 06:29:23;;;;;;;0.67;0.10;;;22.70;1.00;;;;;;4954600;29;20449;-75
2023/06/25 06:31:51;;;;;;;0.70;0.20;;;22.90;1.00;;;;;;4961758;28;20510;-75
2023/06/25 06:34:19;;;;;;;0.70;0.10;;;23.00;1.00;;;;;;4974376;29;20449;-76
2023/06/25 06:36:49;;;;;;;0.70;0.13;;;23.00;1.00;;;;;;4975675;28;20448;-75
2023/06/25 06:39:17;;;;;;;0.70;0.10;;;;;;;;;;4965009;28;20495;-77
2023/06/25 06:41:45;;;;;;;0.70;0.20;;;;;;;;;;4959239;29;20464;-77
2023/06/25 06:44:16;;;;;;;0.70;0.20;;;23.10;1.00;;;;;;4957717;29;20456;-77
2023/06/25 06:46:44;;;;;;;0.70;0.20;;;23.10;1.00;;;;;;4957303;29;20514;-76
2023/06/25 06:49:12;;;;;;;0.70;0.20;;;;;;;;;;4957423;29;20445;-76
2023/06/25 06:51:41;;;;;;;0.70;0.10;;;;;;;;;;4955967;29;20507;-76
2023/06/25 06:54:10;;;;;;;0.70;0.20;;;23.30;1.00;;;;;;4974483;28;20448;-77
2023/06/25 06:56:39;;;;;;;0.70;0.20;;;23.30;1.00;;;;;;4973992;28;20529;-76
2023/06/25 06:59:07;;;;;;;0.70;0.20;;;23.30;1.00;;;;;;4974125;28;21157;-75
2023/06/25 07:01:35;;;;;;;0.70;0.10;;;23.40;1.00;;;;;;4973584;28;20530;-75
2023/06/25 07:04:03;;;;;;;0.70;0.10;;;23.40;1.00;;;;;;4969965;28;20457;-75
2023/06/25 07:06:31;;;;;;;0.70;0.17;;;23.50;1.00;;;;;;4964548;28;20489;-75
2023/06/25 07:08:58;;;;;;;0.70;0.20;;;23.60;1.00;;;;;;4954108;29;20839;-75
2023/06/25 07:11:28;;;;;;;0.70;0.20;;;23.70;1.00;;;;;;4954417;28;20845;-75
2023/06/25 07:13:56;;;;;;;0.70;0.10;;;;;;;;;;4954029;29;20589;-77
2023/06/25 07:16:24;;;;;;;0.70;0.10;;;;;;;;;;4953810;29;20480;-75
2023/06/25 07:18:53;;;;;;;0.70;0.10;;;23.90;1.00;;;;;;4953991;29;20543;-77
2023/06/25 07:21:21;;;;;;;1.43;1.30;;;23.90;1.00;;;;;;4954078;29;20561;-76
2023/06/25 07:23:49;;;;;;;0.70;0.13;;;23.90;1.00;;;;;;4954085;29;20951;-77
2023/06/25 07:26:17;;;;;;;0.70;0.10;;;23.90;1.00;;;;;;4953290;29;20445;-77
2023/06/25 07:28:46;;;;;;;0.70;0.20;;;23.90;1.00;;;;;;4953638;29;20485;-75
2023/06/25 07:31:14;;;;;;;0.70;0.20;;;24.10;1.00;;;;;;4953873;28;20545;-75
2023/06/25 07:33:42;;;;;;;0.70;0.10;;;24.10;1.00;;;;;;4953642;29;20444;-76
2023/06/25 07:36:10;;;;;;;0.70;0.17;;;24.10;1.00;;;;;;4953607;29;20525;-76
2023/06/25 07:38:38;;;;;;;0.80;0.43;;;24.10;1.00;;;;;;4972424;28;20489;-67
2023/06/25 07:41:06;;;;;;;0.70;0.20;;;;;;;;;;4955992;28;20483;-67
2023/06/25 07:43:34;;;;;;;0.70;0.20;;;24.30;1.00;;;;;;4945004;29;20467;-67
2023/06/25 07:46:03;;;;;;;0.70;0.17;;;24.40;1.00;;;;;;4953157;29;20483;-67
2023/06/25 07:48:31;;;;;;;0.70;0.43;;;24.50;1.00;;;;;;4954756;28;20486;-67
2023/06/25 07:50:59;;;;;;;0.70;0.10;;;24.50;1.00;;;;;;4973649;28;20882;-67
2023/06/25 07:53:27;;;;;;;0.70;0.10;;;;;;;;;;4975250;28;20495;-67
2023/06/25 07:55:56;;;;;;;0.70;0.20;;;;;;;;;;4975686;28;20444;-67
2023/06/25 07:58:30;;;;;;;0.70;0.30;;;24.60;1.00;;;;;;4962824;28;20434;-68
2023/06/25 08:00:58;;;;;;;0.70;0.10;;;24.60;1.00;;;;;;4955764;28;20539;-67
2023/06/25 08:03:27;;;;;;;0.70;0.10;;;24.70;1.00;;;;;;4967992;28;20531;-67
2023/06/25 08:05:55;;;;;;;0.70;0.10;;;24.70;1.00;;;;;;4956618;29;20529;-67
2023/06/25 08:08:24;;;;;;;0.70;0.20;;;24.90;1.00;;;;;;4955967;29;20504;-68
2023/06/25 08:10:52;;;;;;;2.50;1.70;;;25.00;1.00;;;;;;4948499;29;21072;-71
2023/06/25 08:13:21;;;;;;;0.70;0.20;;;24.90;1.00;;;;;;4944959;28;20465;-68
2023/06/25 08:15:49;;;;;;;0.70;0.10;;;;;;;;;;4975396;28;20452;-68
2023/06/25 08:18:17;;;;;;;0.70;0.20;;;25.10;1.00;;;;;;4975237;28;20452;-66
2023/06/25 08:20:46;;;;;;;0.90;0.37;;;25.10;1.00;;;;;;4975180;28;20441;-67
2023/06/25 08:23:14;;;;;;;0.70;0.10;;;25.20;1.00;;;;;;4958860;28;20500;-67
2023/06/25 08:25:42;;;;;;;1.13;1.03;;;;;;;;;;4955631;29;20820;-67
2023/06/25 08:28:11;;;;;;;0.70;0.10;;;;;;;;;;4955303;29;20484;-67
2023/06/25 08:30:39;;;;;;;0.90;0.30;;;25.40;1.00;;;;;;4956001;29;20541;-73
2023/06/25 08:33:06;;;;;;;0.70;0.20;;;25.40;1.00;;;;;;4969896;28;20538;-74
2023/06/25 08:35:35;;;;;;;0.70;0.10;;;;;;;;;;4975694;28;20477;-75
2023/06/25 08:38:04;;;;;;;0.70;0.20;;;25.50;1.00;;;;;;4974882;28;20936;-74
2023/06/25 08:40:35;;;;;;;0.80;0.53;;;25.60;1.00;;;;;;4964258;28;20496;-67
2023/06/25 08:43:03;;;;;;;0.70;0.10;;;25.60;1.00;;;;;;4955309;29;20449;-68
2023/06/25 08:45:31;;;;;;;0.70;0.20;;;;;;;;;;4959550;28;20485;-68
2023/06/25 08:48:03;;;;;;;0.80;0.67;;;25.70;1.00;;;;;;4955173;29;20492;-72
2023/06/25 08:50:31;;;;;;;0.80;0.17;;;25.70;1.00;;;;;;4953698;28;20613;-73
2023/06/25 08:52:59;;;;;;;0.70;0.20;;;25.80;1.00;;;;;;4954779;29;20949;-73
2023/06/25 08:55:30;;;;;;;0.70;0.27;;;25.80;1.00;;;;;;4954781;29;20447;-73
2023/06/25 08:57:57;;;;;;;1.03;0.93;;;25.80;1.00;;;;;;4974134;28;21089;-71
2023/06/25 09:00:25;;;;;;;0.80;0.40;;;25.90;1.00;;;;;;4969167;28;20460;-67
2023/06/25 09:02:54;;;;;;;0.70;0.10;;;25.90;1.00;;;;;;4959070;28;20486;-67
2023/06/25 09:05:25;;;;;;;0.70;0.10;;;26.20;1.00;;;;;;4959182;28;20843;-68
2023/06/25 09:07:52;;;;;;;0.70;0.20;;;26.30;1.00;;;;;;4951843;29;20860;-67
2023/06/25 09:10:21;;;;;;;0.70;0.10;;;26.30;1.00;;;;;;4954413;29;20482;-67
2023/06/25 09:12:51;;;;;;;0.70;0.20;;;26.40;1.00;;;;;;4954509;28;20471;-68
2023/06/25 09:15:21;;;;;;;0.70;0.20;;;26.40;1.00;;;;;;4956988;28;20859;-66
2023/06/25 09:17:49;;;;;;;0.70;0.10;;;26.50;1.00;;;;;;4956469;28;20460;-67
2023/06/25 09:20:17;;;;;;;0.70;0.30;;;26.40;1.00;;;;;;4963262;28;20455;-67
2023/06/25 09:22:51;;;;;;;0.70;0.20;;;26.30;1.00;;;;;;4954496;28;20541;-68
2023/06/25 09:25:19;;;;;;;0.70;0.20;;;26.40;1.00;;;;;;4955434;28;20553;-67
2023/06/25 09:27:48;;;;;;;0.70;0.20;;;26.50;1.00;;;;;;4954008;29;21073;-68
2023/06/25 09:30:18;;;;;;;0.70;0.20;;;26.50;1.00;;;;;;4954126;29;20454;-67
2023/06/25 09:32:49;;;;;;;0.80;0.63;;;26.60;1.00;;;;;;4954406;28;20849;-68
2023/06/25 09:35:22;;;;;;;0.70;0.13;;;26.70;1.00;;;;;;4963907;28;20827;-67
2023/06/25 09:37:51;;;;;;;0.70;0.20;;;26.70;1.00;;;;;;4953934;28;20803;-66
2023/06/25 09:40:19;;;;;;;0.70;0.10;;;26.70;1.00;;;;;;4954931;29;20809;-66
2023/06/25 09:42:49;;;;;;;0.70;0.20;;;26.80;1.00;;;;;;4954507;28;20513;-67
2023/06/25 09:45:20;;;;;;;0.70;0.20;;;27.00;1.00;;;;;;4955473;28;20449;-66
2023/06/25 09:47:49;;;;;;;0.70;0.20;;;27.00;1.00;;;;;;4956273;29;20474;-68
2023/06/25 09:50:19;;;;;;;0.70;0.20;;;27.00;1.00;;;;;;4956310;29;20446;-67
2023/06/25 09:52:55;;;;;;;0.70;0.10;;;27.00;1.00;;;;;;4953849;28;20483;-67
2023/06/25 09:55:24;;;;;;;2.63;2.37;;;27.10;1.00;;;;;;4958275;28;20988;-68
2023/06/25 09:57:54;;;;;;;0.70;0.20;;;27.10;1.00;;;;;;4959244;28;20451;-67
2023/06/25 10:00:24;;;;;;;0.70;0.10;;;27.10;1.00;;;;;;4967819;28;20446;-66
2023/06/25 10:02:53;;;;;;;0.70;0.20;;;27.20;1.00;;;;;;4954845;28;20474;-66
2023/06/25 10:05:21;;;;;;;0.70;0.20;;;27.20;1.00;;;;;;4955805;29;20483;-71
2023/06/25 10:07:49;;;;;;;1.17;0.60;;;;;;;;;;4955889;29;20447;-68
2023/06/25 10:10:22;;;;;;;0.70;0.10;;;27.40;1.00;;;;;;4955385;28;20448;-71
2023/06/25 10:12:51;;;;;;;0.70;0.13;;;27.50;1.00;;;;;;4939623;29;20477;-70
2023/06/25 10:15:29;;;;;;;0.70;0.20;;;27.50;1.00;;;;;;4938943;29;20448;-69
2023/06/25 10:17:59;;;;;;;0.70;0.10;;;27.50;1.00;;;;;;4974200;23;20692;-76
2023/06/25 10:20:30;;;;;;;0.70;0.10;;;27.60;1.00;;;;;;4947621;29;20471;-77
2023/06/25 10:23:08;;;;;;;0.70;0.20;;;27.60;1.00;;;;;;4951551;28;20529;-73
2023/06/25 10:25:38;;;;;;;0.70;0.10;;;27.60;1.00;;;;;;4948925;29;20501;-74
2023/06/25 10:28:10;;;;;;;0.90;0.40;;;27.70;1.00;;;;;;4965097;28;20544;-78
2023/06/25 10:30:42;;;;;;;0.70;0.20;;;27.80;1.00;;;;;;4969045;28;20550;-75
2023/06/25 10:33:10;;;;;;;0.70;0.20;;;27.80;1.00;;;;;;4956913;28;20501;-77
2023/06/25 10:35:41;;;;;;;0.70;0.10;;;27.90;1.00;;;;;;4954530;28;20447;-75
2023/06/25 10:38:09;;;;;;;0.70;0.10;;;27.90;1.00;;;;;;4958577;28;20481;-76
2023/06/25 10:40:39;;;;;;;0.70;0.10;;;28.00;1.00;;;;;;4962511;28;20478;-75
2023/06/25 10:43:07;;;;;;;0.70;0.20;;;28.10;1.00;;;;;;4973263;28;20532;-77
2023/06/25 10:45:35;;;;;;;0.70;0.20;;;28.20;1.00;;;;;;4973622;28;20536;-77
2023/06/25 10:48:08;;;;;;;0.70;0.10;;;28.30;1.00;;;;;;4972999;28;20564;-76
2023/06/25 10:50:36;;;;;;;0.70;0.10;;;28.30;1.00;;;;;;4964884;28;20469;-76
2023/06/25 10:53:09;;;;;;;0.70;0.10;;;28.20;1.00;;;;;;4972900;28;20771;-74
2023/06/25 10:55:38;;;;;;;0.70;0.20;;;28.30;1.00;;;;;;4954727;29;20474;-75
2023/06/25 10:58:06;;;;;;;0.70;0.20;;;28.40;1.00;;;;;;4958810;28;20461;-74
2023/06/25 11:00:34;;;;;;;0.70;0.20;;;28.50;1.00;;;;;;4962441;28;20492;-76
2023/06/25 11:03:02;;;;;;;0.70;0.20;;;28.50;1.00;;;;;;4965277;28;20453;-74
2023/06/25 11:05:36;;;;;;;0.80;0.37;;;28.50;1.00;;;;;;4973658;28;20967;-75
2023/06/25 11:08:06;;;;;;;0.80;0.50;;;28.60;1.00;;;;;;4968484;28;20487;-74
2023/06/25 11:10:34;;;;;;;0.70;0.10;;;28.60;1.00;;;;;;4970413;28;20454;-74
2023/06/25 11:13:02;;;;;;;0.70;0.20;;;28.60;1.00;;;;;;4955102;29;20474;-76
2023/06/25 11:15:32;;;;;;;0.70;0.20;;;28.60;1.00;;;;;;4959182;28;20553;-76
2023/06/25 11:18:00;;;;;;;0.70;0.20;;;28.60;1.00;;;;;;4971347;28;20513;-74
2023/06/25 11:20:28;;;;;;;0.70;0.20;;;28.50;1.00;;;;;;4956981;28;20559;-75
2023/06/25 11:23:01;;;;;;;0.70;0.20;;;28.50;1.00;;;;;;4972254;28;20961;-75
2023/06/25 11:25:30;;;;;;;0.70;0.10;;;28.60;1.00;;;;;;4969301;28;20450;-77
2023/06/25 11:28:03;;;;;;;0.70;0.20;;;28.60;1.00;;;;;;4963188;28;20463;-75
2023/06/25 11:30:31;;;;;;;0.70;0.20;;;28.70;1.00;;;;;;4971615;28;20525;-76
2023/06/25 11:33:09;;;;;;;4.00;3.80;;;28.70;1.00;;;;;;4979123;28;20461;-77
2023/06/25 11:35:37;;;;;;;0.70;0.10;;;28.70;1.00;;;;;;4967483;28;20446;-74
2023/06/25 11:38:07;;;;;;;0.70;0.10;;;28.90;1.00;;;;;;4969467;28;20875;-74
2023/06/25 11:40:38;;;;;;;0.70;0.20;;;29.00;1.00;;;;;;4971866;28;20454;-77
2023/06/25 11:43:07;;;;;;;0.80;0.37;;;29.00;1.00;;;;;;4976351;28;20462;-76
2023/06/25 11:45:43;;;;;;;0.70;0.20;;;29.20;1.00;;;;;;4970281;28;20895;-76
2023/06/25 11:48:14;;;;;;;0.70;0.20;;;29.10;1.00;;;;;;4970391;28;20459;-78
2023/06/25 11:50:43;;;;;;;0.70;0.10;;;29.20;1.00;;;;;;4974054;28;20494;-76
2023/06/25 11:53:13;;;;;;;0.70;0.10;;;29.20;1.00;;;;;;4973606;28;20445;-77
2023/06/25 11:55:42;;;;;;;0.70;0.10;;;29.20;1.00;;;;;;4971396;28;20455;-75
2023/06/25 11:58:10;;;;;;;0.80;0.50;;;29.10;1.00;;;;;;4976513;28;20552;-75
2023/06/25 12:00:39;;;;;;;2.50;0.87;;;29.00;1.00;;;;;;4979288;28;20534;-77
2023/06/25 12:03:11;;;;;;;1.90;0.67;;;29.00;1.00;;;;;;4976320;28;20502;-77
2023/06/25 12:05:39;;;;;;;0.70;0.10;;;28.90;1.00;;;;;;4975770;28;20450;-76
2023/06/25 12:08:07;;;;;;;0.70;0.17;;;29.00;1.00;;;;;;4967876;28;20489;-76
2023/06/25 12:10:37;;;;;;;0.70;0.10;;;29.00;1.00;;;;;;4975989;28;20521;-75
2023/06/25 12:13:05;;;;;;;0.70;0.10;;;29.10;1.00;;;;;;4978088;28;20452;-74
2023/06/25 12:15:32;;;;;;;0.70;0.20;;;29.10;1.00;;;;;;4982032;28;20856;-76
2023/06/25 12:18:00;;;;;;;0.70;0.20;;;29.20;1.00;;;;;;4976230;28;20474;-75
2023/06/25 12:20:28;;;;;;;1.33;1.23;;;29.30;1.00;;;;;;4975634;28;20829;-77
2023/06/25 12:22:56;;;;;;;0.70;0.10;;;29.30;1.00;;;;;;4975651;28;20544;-76
2023/06/25 12:25:24;;;;;;;0.70;0.10;;;29.30;1.00;;;;;;4974003;28;20447;-76
2023/06/25 12:27:54;;;;;;;0.70;0.20;;;29.40;1.00;;;;;;4957105;28;20503;-77
2023/06/25 12:30:23;;;;;;;0.70;0.20;;;29.40;1.00;;;;;;4958300;28;20490;-75
2023/06/25 12:32:51;;;;;;;0.80;0.40;;;29.30;1.00;;;;;;4976583;28;20450;-75
2023/06/25 12:35:23;;;;;;;0.70;0.20;;;29.40;1.00;;;;;;4976215;28;20526;-76
2023/06/25 12:37:51;;;;;;;0.70;0.10;;;29.50;1.00;;;;;;4975273;28;20578;-76
2023/06/25 12:40:20;;;;;;;0.70;0.20;;;29.60;1.00;;;;;;4974799;28;20455;-75
2023/06/25 12:42:47;;;;;;;0.70;0.20;;;29.70;1.00;;;;;;4974448;28;21065;-75
2023/06/25 12:45:17;;;;;;;0.70;0.20;;;29.80;1.00;;;;;;4975651;28;20486;-76
2023/06/25 12:47:45;;;;;;;0.70;0.20;;;29.90;1.00;;;;;;4976091;28;20468;-75
2023/06/25 12:50:13;;;;;;;0.70;0.20;;;30.00;1.00;;;;;;4975531;28;20486;-77
2023/06/25 12:52:41;;;;;;;0.70;0.20;;;30.10;1.00;;;;;;4974671;28;20789;-76
2023/06/25 12:55:09;;;;;;;0.70;0.10;;;30.20;1.00;;;;;;4975159;28;20516;-75
2023/06/25 12:57:37;;;;;;;0.80;0.50;;;30.20;1.00;;;;;;4972518;28;20510;-76
2023/06/25 13:00:06;;;;;;;0.70;0.10;;;30.20;1.00;;;;;;4962820;28;20631;-76
2023/06/25 13:02:40;;;;;;;0.70;0.20;;;30.20;1.00;;;;;;4966304;28;20527;-74
2023/06/25 13:05:08;;;;;;;0.70;0.30;;;30.20;1.00;;;;;;4975059;28;20453;-76
2023/06/25 13:07:36;;;;;;;0.70;0.20;;;30.30;1.00;;;;;;4974644;28;20571;-76
2023/06/25 13:10:05;;;;;;;0.70;0.20;;;30.30;1.00;;;;;;4973777;28;20514;-75
2023/06/25 13:12:33;;;;;;;0.70;0.20;;;30.40;1.00;;;;;;4955279;29;20488;-76
2023/06/25 13:15:01;;;;;;;0.70;0.20;;;30.50;1.00;;;;;;4955687;29;20489;-75
2023/06/25 13:17:29;;;;;;;0.70;0.20;;;30.60;1.00;;;;;;4955479;29;20484;-77
2023/06/25 13:19:58;;;;;;;0.70;0.20;;;30.60;1.00;;;;;;4973805;28;20447;-74
2023/06/25 13:22:26;;;;;;;0.70;0.10;;;30.60;1.00;;;;;;4974461;28;20463;-76
2023/06/25 13:24:54;;;;;;;0.70;0.10;;;30.50;1.00;;;;;;4974480;28;20457;-76
2023/06/25 13:27:22;;;;;;;0.77;0.40;;;30.50;1.00;;;;;;4974263;28;20681;-76
2023/06/25 13:29:50;;;;;;;0.70;0.20;;;30.30;1.00;;;;;;4973956;28;20578;-75
2023/06/25 13:32:18;;;;;;;0.70;0.20;;;30.30;1.00;;;;;;4973641;28;20898;-76
2023/06/25 13:34:45;;;;;;;1.27;0.40;;;30.30;1.00;;;;;;4974233;28;20501;-76
2023/06/25 13:37:15;;;;;;;0.70;0.10;;;30.40;1.00;;;;;;4974228;28;20468;-75
2023/06/25 13:39:44;;;;;;;0.70;0.10;;;30.40;1.00;;;;;;4972368;28;20456;-75
2023/06/25 13:42:13;;;;;;;0.70;0.20;;;30.50;1.00;;;;;;4963551;28;20453;-75
2023/06/25 13:44:41;;;;;;;0.70;0.10;;;30.60;1.00;;;;;;4976298;28;20452;-74
2023/06/25 13:47:09;;;;;;;0.70;0.20;;;30.70;1.00;;;;;;4970311;28;20853;-74
2023/06/25 13:49:37;;;;;;;0.70;0.10;;;;;;;;;;4967384;28;20531;-75
2023/06/25 13:52:06;;;;;;;0.70;0.20;;;30.70;1.00;;;;;;4965935;28;20532;-75
2023/06/25 13:54:35;;;;;;;0.70;0.20;;;30.70;1.00;;;;;;4977442;28;20499;-77
2023/06/25 13:57:03;;;;;;;0.70;0.20;;;;;;;;;;4968605;28;21039;-75
2023/06/25 13:59:31;;;;;;;0.80;0.20;;;30.70;1.00;;;;;;4964406;28;20484;-75
2023/06/25 14:01:59;;;;;;;0.70;0.20;;;30.80;1.00;;;;;;4967106;28;20597;-73
2023/06/25 14:04:27;;;;;;;0.70;0.20;;;31.00;1.00;;;;;;4975787;28;20464;-74
2023/06/25 14:06:55;;;;;;;0.70;0.20;;;31.20;1.00;;;;;;4967175;28;20485;-74
2023/06/25 14:09:26;;;;;;;0.70;0.20;;;31.10;1.00;;;;;;4961997;28;20463;-74
2023/06/25 14:11:55;;;;;;;0.70;0.20;;;31.30;1.00;;;;;;4968730;28;20497;-72
2023/06/25 14:14:23;;;;;;;0.70;0.17;;;31.40;1.00;;;;;;4970963;28;20954;-74
2023/06/25 14:16:51;;;;;;;0.70;0.20;;;31.50;1.00;;;;;;4957130;28;20531;-72
2023/06/25 14:19:20;;;;;;;0.73;0.30;;;31.50;1.00;;;;;;4969892;28;20451;-74
2023/06/25 14:21:48;;;;;;;0.70;0.10;;;31.50;1.00;;;;;;4955763;28;20456;-74
2023/06/25 14:24:18;;;;;;;0.70;0.10;;;31.50;1.00;;;;;;4968649;28;20516;-75
2023/06/25 14:26:46;;;;;;;0.70;0.10;;;31.60;1.00;;;;;;4967698;28;20469;-74
2023/06/25 14:29:15;;;;;;;0.97;0.37;;;31.60;1.00;;;;;;4963442;28;20912;-75
2023/06/25 14:31:43;;;;;;;0.70;0.20;;;31.50;1.00;;;;;;4960113;28;20576;-73
2023/06/25 14:34:11;;;;;;;0.70;0.20;;;;;;;;;;4971943;28;20453;-72
2023/06/25 14:36:39;;;;;;;0.70;0.20;;;31.40;1.00;;;;;;4970872;28;20839;-74
2023/06/25 14:39:07;;;;;;;0.70;0.10;;;31.40;1.00;;;;;;4969567;28;20506;-73
2023/06/25 14:41:35;;;;;;;0.70;0.10;;;;;;;;;;4964473;28;20795;-74
2023/06/25 14:44:04;;;;;;;0.70;0.20;;;31.70;1.00;;;;;;4962972;28;20534;-74
2023/06/25 14:46:33;;;;;;;0.70;0.20;;;31.90;1.00;;;;;;4957610;29;20467;-74
2023/06/25 14:49:01;;;;;;;0.70;0.17;;;31.90;1.00;;;;;;4968770;28;20485;-74
2023/06/25 14:51:29;;;;;;;0.70;0.20;;;32.00;1.00;;;;;;4968433;28;20568;-74
2023/06/25 14:53:57;;;;;;;0.70;0.20;;;32.10;1.00;;;;;;4958585;28;20447;-74
2023/06/25 14:56:24;;;;;;;0.70;0.10;;;32.10;1.00;;;;;;4965322;28;20576;-75
2023/06/25 14:58:52;;;;;;;0.70;0.20;;;32.20;1.00;;;;;;4966748;28;21016;-73
2023/06/25 15:01:20;;;;;;;0.70;0.20;;;32.20;1.00;;;;;;4955014;28;20450;-73
2023/06/25 15:03:50;;;;;;;0.70;0.20;;;32.30;1.00;;;;;;4971544;28;20539;-73
2023/06/25 15:06:18;;;;;;;0.70;0.40;;;32.40;1.00;;;;;;4966537;28;20576;-75
2023/06/25 15:09:02;;;;;;;0.70;0.20;;;;;;;;;;4963990;28;20959;-74
2023/06/25 15:11:30;;;;;;;0.70;0.20;;;32.50;1.00;;;;;;4970712;28;20631;-73
2023/06/25 15:13:59;;;;;;;0.70;0.10;;;32.50;1.00;;;;;;4972240;28;20449;-73
2023/06/25 15:16:27;;;;;;;0.70;0.20;;;32.50;1.00;;;;;;4963737;28;20484;-74
2023/06/25 15:18:57;;;;;;;0.70;0.20;;;32.60;1.00;;;;;;4960880;28;20937;-73
2023/06/25 15:21:25;;;;;;;0.70;0.10;;;32.70;1.00;;;;;;4969354;28;20477;-74
2023/06/25 15:23:53;;;;;;;0.70;0.20;;;32.70;1.00;;;;;;4969316;28;20934;-73
2023/06/25 15:26:21;;;;;;;0.70;0.20;;;32.90;1.00;;;;;;4968664;28;20483;-74
2023/06/25 15:28:48;;;;;;;0.70;0.20;;;32.90;1.00;;;;;;4967594;28;20532;-76
2023/06/25 15:31:17;;;;;;;0.90;0.53;;;33.00;1.00;;;;;;4960737;28;20518;-76
2023/06/25 15:33:45;;;;;;;0.70;0.20;;;32.90;1.00;;;;;;4973532;28;20445;-77
2023/06/25 15:36:15;;;;;;;0.70;0.20;;;32.90;1.00;;;;;;4976227;28;20473;-74
2023/06/25 15:38:44;;;;;;;0.70;0.20;;;32.90;1.00;;;;;;4977383;28;20478;-75
2023/06/25 15:41:12;;;;;;;0.70;0.20;;;33.10;1.00;;;;;;4977265;28;20485;-76
2023/06/25 15:43:40;;;;;;;0.70;0.23;;;33.20;1.00;;;;;;4973962;28;20981;-75
2023/06/25 15:46:08;;;;;;;0.70;0.20;;;33.40;1.00;;;;;;4973594;28;20496;-74
2023/06/25 15:48:36;;;;;;;0.70;0.20;;;33.40;1.00;;;;;;4974543;28;20466;-76
2023/06/25 15:51:04;;;;;;;0.80;0.40;;;33.50;1.00;;;;;;4978081;28;20512;-75
2023/06/25 15:53:33;;;;;;;0.70;0.20;;;33.50;1.00;;;;;;4980661;28;20454;-76
2023/06/25 15:56:01;;;;;;;0.70;0.20;;;33.70;1.00;;;;;;4973562;28;20450;-77
2023/06/25 15:58:30;;;;;;;0.70;0.20;;;33.70;1.00;;;;;;4973183;28;20508;-74
2023/06/25 16:00:57;;;;;;;0.70;0.20;;;33.70;1.00;;;;;;4973289;28;20903;-74
2023/06/25 16:03:25;;;;;;;0.70;0.30;;;33.90;1.00;;;;;;4973905;28;20453;-76
2023/06/25 16:05:53;;;;;;;0.70;0.40;;;34.00;1.00;;;;;;4973470;28;20505;-75
2023/06/25 16:08:21;;;;;;;0.70;0.20;;;34.00;1.00;;;;;;4973090;28;20477;-74
2023/06/25 16:10:50;;;;;;;0.70;0.20;;;34.10;1.00;;;;;;4969349;28;21003;-74
2023/06/25 16:13:18;;;;;;;0.70;0.27;;;34.10;1.00;;;;;;4956965;29;21008;-75
2023/06/25 16:15:46;;;;;;;0.70;0.20;;;34.10;1.00;;;;;;4957180;29;20497;-75
2023/06/25 16:18:14;;;;;;;0.70;0.20;;;34.10;1.00;;;;;;4976737;23;20525;-70
2023/06/25 16:20:42;;;;;;;0.70;0.20;;;34.30;1.00;;;;;;4956128;29;21169;-69
2023/06/25 16:23:10;;;;;;;0.70;0.10;;;34.50;1.00;;;;;;4965185;28;20944;-68
2023/06/25 16:25:38;;;;;;;0.70;0.20;;;34.70;1.00;;;;;;4973487;28;20497;-68
2023/06/25 16:28:08;;;;;;;0.70;0.13;;;34.80;1.00;;;;;;4983923;28;20516;-68
2023/06/25 16:30:36;;;;;;;0.70;0.20;;;34.70;1.00;;;;;;4986361;28;20484;-69
2023/06/25 16:33:04;;;;;;;0.90;0.70;;;34.90;1.00;;;;;;4994569;28;20480;-69
2023/06/25 16:35:32;;;;;;;0.70;0.20;;;35.00;1.00;;;;;;4994710;28;20443;-68
2023/06/25 16:37:59;;;;;;;0.70;0.20;;;35.00;1.00;;;;;;4994256;28;20478;-69
2023/06/25 16:40:28;;;;;;;0.70;0.20;;;35.20;1.00;;;;;;4994949;28;20473;-68
2023/06/25 16:42:56;;;;;;;0.70;0.20;;;35.30;1.00;;;;;;4994418;28;20476;-68
2023/06/25 16:45:25;;;;;;;1.70;1.60;;;35.40;1.00;;;;;;4994638;28;20472;-68
2023/06/25 16:47:53;;;;;;;0.87;0.30;;;37.90;1.00;;;;;;4994635;28;20508;-69
2023/06/25 16:50:21;;;;;;;0.70;0.20;;;35.40;1.00;;;;;;4994682;28;20546;-69
2023/06/25 16:52:49;;;;;;;0.80;0.40;;;35.40;1.00;;;;;;4994582;28;20849;-68
2023/06/25 16:55:18;;;;;;;0.70;0.20;;;35.60;1.00;;;;;;4994556;28;20520;-68
2023/06/25 16:57:46;;;;;;;0.70;0.20;;;35.60;1.00;;;;;;4989571;28;20482;-69
2023/06/25 17:00:14;;;;;;;0.70;0.20;;;35.50;1.00;;;;;;4994240;28;20447;-68
2023/06/25 17:02:43;;;;;;;0.70;0.20;;;35.60;1.00;;;;;;4992794;28;20896;-68
2023/06/25 17:05:11;;;;;;;0.90;0.40;;;35.80;1.00;;;;;;4990442;28;20444;-69
2023/06/25 17:07:39;;;;;;;0.83;0.67;;;35.80;1.00;;;;;;4981169;28;20548;-69
2023/06/25 17:10:08;;;;;;;0.70;0.20;;;35.90;1.00;;;;;;4994167;28;20496;-71
2023/06/25 17:12:35;;;;;;;0.70;0.20;;;36.00;1.00;;;;;;4994453;28;20449;-68